Flight Track Log - Related Links

Times and Time Zones

All times are in EDT time to prevent confusion due to time zone crossing. See the EJA831 flight status page for this flight to view local times or setup timezone preferences in your user account.

Time Position Orientation Groundspeed Altitude Reporting Facility
EDT Latitude Longitude Course Direction KTS MPH feet Rate Location/Type
Fri 02:02:24 PM 35.3133 -101.7889 312° West 256 295 11,100  Level Albuquerque Center
Fri 02:03:26 PM 35.3539 -101.8647 303° West 265 305 14,900 3,532 Climbing Albuquerque Center
Fri 02:04:28 PM 35.4056 -101.9611 303° West 278 320 18,400 3,097 Climbing Albuquerque Center
Fri 02:05:30 PM 35.4508 -102.0475 303° West 294 338 21,300 2,613 Climbing Albuquerque Center
Fri 02:06:00 PM 35.5748 -102.3328 302° West  Level FlightAware Approximate
Fri 02:06:32 PM 35.4997 -102.1381 304° West 311 358 23,800  Level Albuquerque Center
Fri 02:07:34 PM 35.5500 -102.2336 303° West 329 379 26,300 2,419 Climbing Albuquerque Center
Fri 02:08:36 PM 35.6006 -102.3289 303° West 332 382 28,800 2,226 Climbing Albuquerque Center
Fri 02:09:38 PM 35.6519 -102.4267 303° West 337 388 30,900 2,098 Climbing Albuquerque Center
Fri 02:10:39 PM 35.7156 -102.5475 303° West 348 400 33,100 1,805 Climbing Albuquerque Center
Fri 02:11:41 PM 35.7697 -102.6511 303° West 357 411 34,600 1,452 Climbing Albuquerque Center
Fri 02:12:43 PM 35.8247 -102.7564 303° West 364 419 36,100 1,355 Climbing Albuquerque Center
Fri 02:13:45 PM 35.8789 -102.8597 303° West 362 417 37,400 919 Climbing Albuquerque Center
Fri 02:14:47 PM 35.9378 -102.9742 302° West 365 420 38,000 290 Climbing Albuquerque Center
Fri 02:15:49 PM 35.9961 -103.0861 303° West 380 437 38,000  Level Albuquerque Center
Fri 02:16:51 PM 36.0567 -103.2056 302° West 400 460 38,000  Level Albuquerque Center
Fri 02:17:53 PM 36.1189 -103.3258 303° West 409 471 38,000  Level Albuquerque Center
Fri 02:18:55 PM 36.1808 -103.4461 303° West 412 474 38,000  Level Albuquerque Center
Fri 02:19:57 PM 36.2508 -103.5853 302° West 408 470 38,000  Level Albuquerque Center
Fri 02:20:59 PM 36.3117 -103.7042 302° West 407 468 38,000  Level Albuquerque Center
Fri 02:22:01 PM 36.3717 -103.8225 302° West 404 465 38,000  Level Albuquerque Center
Fri 02:23:02 PM 36.4306 -103.9414 302° West 404 465 38,000  Level Albuquerque Center
Fri 02:24:04 PM 36.4908 -104.0617 302° West 406 467 38,000  Level Albuquerque Center
Fri 02:25:06 PM 36.5514 -104.1797 303° West 404 465 38,000  Level Albuquerque Center
Fri 02:26:08 PM 36.6108 -104.2975 302° West 402 463 38,000  Level Albuquerque Center
Fri 02:27:10 PM 36.6694 -104.4169 301° West 401 461 38,000  Level Albuquerque Center
Fri 02:28:12 PM 36.7397 -104.5558 302° West 405 466 38,000  Level Albuquerque Center
Fri 02:29:14 PM 36.7964 -104.6719 301° West 408 470 38,000  Level Albuquerque Center
Fri 02:30:16 PM 36.8631 -104.8078 302° West 410 472 38,000  Level Albuquerque Center
Fri 02:31:17 PM 36.9200 -104.9239 302° West 409 471 38,000  Level Albuquerque Center
Fri 02:32:19 PM 36.9778 -105.0428 301° West 413 475 38,000  Level Albuquerque Center
Fri 02:33:21 PM 37.0447 -105.1800 301° West 413 475 38,000  Level Albuquerque Center
Fri 02:34:23 PM 37.1022 -105.3006 301° West 418 481 38,000  Level Albuquerque Center
Fri 02:35:25 PM 37.1692 -105.4386 301° West 416 479 38,000  Level Albuquerque Center
Fri 02:36:38 PM 37.2364 -105.5786 301° West 413 475 38,000  Level Denver Center
Fri 02:37:40 PM 37.3050 -105.7236 301° West 412 474 38,000  Level Denver Center
Fri 02:38:42 PM 37.3633 -105.8386 303° West 409 471 38,000  Level Denver Center
Fri 02:39:44 PM 37.4292 -105.9464 308° West 406 467 38,000  Level Denver Center
Fri 02:40:46 PM 37.5047 -106.0731 307° West 405 466 38,000  Level Denver Center
Fri 02:41:48 PM 37.5683 -106.1822 306° West 405 466 38,000  Level Denver Center
Fri 02:42:50 PM 37.6450 -106.3100 307° West 408 470 38,000  Level Denver Center
Fri 02:44:04 PM 37.7092 -106.4186 307° West 405 466 38,000  Level Denver Center
Fri 02:45:06 PM 37.7931 -106.5639 306° West 400 460 38,000  Level Denver Center
Fri 02:46:08 PM 37.8611 -106.6778 307° West 403 464 38,000  Level Denver Center
Fri 02:47:10 PM 37.9356 -106.8053 307° West 404 465 38,000  Level Denver Center
Fri 02:48:11 PM 37.9994 -106.9147 307° West 403 464 38,000  Level Denver Center
Fri 02:49:13 PM 38.0697 -107.0481 304° West 407 468 38,000  Level Denver Center
Fri 02:50:15 PM 38.1242 -107.1550 303° West 408 470 38,000  Level Denver Center
Fri 02:51:17 PM 38.1883 -107.2800 303° West 410 472 38,000  Level Denver Center
Fri 02:52:19 PM 38.2567 -107.4192 302° West 414 476 38,000  Level Denver Center
Fri 02:53:21 PM 38.3164 -107.5381 303° West 415 478 38,000  Level Denver Center
Fri 02:54:23 PM 38.3861 -107.6789 302° West 420 483 38,000  Level Denver Center
Fri 02:55:24 PM 38.4439 -107.8000 301° West 417 480 38,000  Level Denver Center
Fri 02:56:26 PM 38.5153 -107.9378 304° West 418 481 38,000  Level Denver Center
Fri 02:57:28 PM 38.5733 -108.0569 302° West 413 475 38,000  Level Denver Center
Fri 02:58:30 PM 38.6419 -108.1936 303° West 408 470 38,000  Level Denver Center
Fri 02:59:32 PM 38.6994 -108.3136 302° West 412 474 38,000  Level Denver Center
Fri 03:00:33 PM 38.7589 -108.4331 303° West 414 476 38,000  Level Denver Center
Fri 03:01:35 PM 38.8272 -108.5750 302° West 417 480 38,000  Level Denver Center
Fri 03:02:49 PM 38.9042 -108.7350 302° West 411 473 38,000  Level Denver Center
Fri 03:03:51 PM 38.9619 -108.8558 302° West 413 475 38,000  Level Denver Center
Fri 03:04:53 PM 39.0200 -108.9772 302° West 415 478 38,000  Level Denver Center
Fri 03:05:55 PM 39.0894 -109.1211 302° West 422 486 38,000  Level Denver Center
Fri 03:06:56 PM 39.1483 -109.2458 301° West 422 486 38,000  Level Denver Center
Fri 03:07:58 PM 39.2161 -109.3919 301° West 426 490 38,000 -339 Level Denver Center
Fri 03:09:00 PM 39.2744 -109.5139 302° West 417 480 37,300 -871 Descending Denver Center
Fri 03:10:02 PM 39.3319 -109.6372 301° West 417 480 36,200 -1,220 Descending Denver Center
Fri 03:11:03 PM 39.4006 -109.7836 301° West 424 488 34,800 -1,171 Descending Denver Center
Fri 03:12:05 PM 39.4594 -109.9092 301° West 425 489 33,800 -1,065 Descending Denver Center
Fri 03:13:07 PM 39.5281 -110.0575 301° West 428 493 32,600 -871 Descending Denver Center
Fri 03:14:09 PM 39.5858 -110.1842 301° West 429 494 32,000 -290 Descending Denver Center
Fri 03:15:11 PM 39.6550 -110.3339 301° West 430 495 32,000 -387 Level Denver Center
Fri 03:16:13 PM 39.7144 -110.4625 301° West 433 498 31,200 -1,306 Descending Denver Center
Fri 03:17:15 PM 39.7692 -110.5922 299° West 430 495 29,300 -2,000 Descending Denver Center
Fri 03:18:16 PM 39.8294 -110.7486 297° West 433 498 27,100 -2,048 Descending Denver Center
Fri 03:19:21 PM 39.8872 -110.9019 296° West 424 488 25,000 -1,843 Descending Salt Lake Center
Fri 03:20:23 PM 39.9378 -111.0300 297° West 416 479 23,200 -1,790 Descending Salt Lake Center
Fri 03:21:25 PM 40.0164 -111.1564 309° West 404 465 21,300 -1,887 Descending Salt Lake Center
Fri 03:22:27 PM 40.0853 -111.2586 311° West 392 451 19,300 -1,839 Descending Salt Lake Center
Fri 03:23:29 PM 40.1397 -111.3561 306° West 342 394 17,500 -1,597 Descending Salt Lake Center
Fri 03:24:31 PM 40.1561 -111.4706 281° West 320 368 16,000 -808 Descending Salt Lake Center
Fri 03:25:13 PM 40.1633 -111.5728 275° West 320 368 16,100 -98 Climbing Salt Lake Center
Fri 03:25:32 PM 40.1703 -111.5875 302° West 324 373 15,900  Descending Salt Lake Center
Fri 03:25:50 PM 40.1736 -111.6450 274° West 330 380 16,100 -97 Climbing Salt Lake Center
Fri 03:26:34 PM 40.1933 -111.6997 295° West 322 371 15,800 -689 Descending Salt Lake Center
Fri 03:26:51 PM 40.2183 -111.7394 310° West 320 368 15,400 -1,258 Descending Salt Lake Center
Fri 03:27:36 PM 40.2775 -111.7825 331° Northwest 319 367 14,500 -984 Descending Salt Lake Center
Fri 03:27:52 PM 40.2922 -111.8069 308° West 323 372 14,400 -1,200 Descending Salt Lake Center
Fri 03:28:41 PM 40.3492 -111.8458 333° Northwest 312 359 13,200 -1,889 Descending Salt Lake Center
Fri 03:29:40 PM 40.4181 -111.9061 326° Northwest 300 345 11,000 -2,132 Descending Salt Lake Center
Fri 03:30:42 PM 40.4908 -111.9292 346° North 274 315 8,900 -1,248 Descending Salt Lake Center
Fri 03:31:45 PM 40.5614 -111.9378 355° North 259 298 8,400 -934 Descending Salt Lake Center
Fri 03:32:44 PM 40.6394 -111.9511 353° North 265 305 7,000 -1,306 Descending Salt Lake Center
Fri 03:33:49 PM 40.7103 -111.9581 356° North 221 254 5,700 -1,082 Descending Salt Lake Center
Fri 03:34:46 PM 40.7472 -111.9628 354° North 152 175 4,800 -774 Descending Salt Lake Center
Fri 03:35:53 PM 40.7858 -111.9619 North 129 148 4,100 -627 Descending Salt Lake Center
Fri 03:37:00 PM 40.7833 -111.9667 North  Level FlightAware Approximate

Login

Don't have an account? Register now (free) for customized features, flight alerts, and more!